sensor_id;sensor_type;location;lat;lon;timestamp;P1;durP1;ratioP1;P2;durP2;ratioP2
20527;SDS011;23612;50.894;10.700;2023-04-06T00:00:36;16.27;;;9.97;;
20527;SDS011;23612;50.894;10.700;2023-04-06T00:03:01;14.23;;;9.77;;
20527;SDS011;23612;50.894;10.700;2023-04-06T00:05:27;15.37;;;10.00;;
20527;SDS011;23612;50.894;10.700;2023-04-06T00:07:55;16.50;;;9.40;;
20527;SDS011;23612;50.894;10.700;2023-04-06T00:10:21;21.53;;;9.90;;
20527;SDS011;23612;50.894;10.700;2023-04-06T00:12:47;16.83;;;9.73;;
20527;SDS011;23612;50.894;10.700;2023-04-06T00:15:12;15.67;;;10.23;;
20527;SDS011;23612;50.894;10.700;2023-04-06T00:17:38;16.03;;;10.63;;
20527;SDS011;23612;50.894;10.700;2023-04-06T00:20:03;12.50;;;9.10;;
20527;SDS011;23612;50.894;10.700;2023-04-06T00:22:29;16.23;;;10.30;;
20527;SDS011;23612;50.894;10.700;2023-04-06T00:24:55;15.77;;;10.87;;
20527;SDS011;23612;50.894;10.700;2023-04-06T00:27:20;18.30;;;10.93;;
20527;SDS011;23612;50.894;10.700;2023-04-06T00:29:46;16.80;;;11.03;;
20527;SDS011;23612;50.894;10.700;2023-04-06T00:32:11;17.37;;;11.30;;
20527;SDS011;23612;50.894;10.700;2023-04-06T00:34:37;15.83;;;10.73;;
20527;SDS011;23612;50.894;10.700;2023-04-06T00:37:02;16.23;;;10.50;;
20527;SDS011;23612;50.894;10.700;2023-04-06T00:39:28;17.83;;;11.30;;
20527;SDS011;23612;50.894;10.700;2023-04-06T00:41:53;19.10;;;11.07;;
20527;SDS011;23612;50.894;10.700;2023-04-06T00:44:20;19.63;;;11.50;;
20527;SDS011;23612;50.894;10.700;2023-04-06T00:46:46;18.33;;;11.23;;
20527;SDS011;23612;50.894;10.700;2023-04-06T00:49:11;18.73;;;11.17;;
20527;SDS011;23612;50.894;10.700;2023-04-06T00:51:37;19.63;;;11.37;;
20527;SDS011;23612;50.894;10.700;2023-04-06T00:54:03;25.17;;;11.97;;
20527;SDS011;23612;50.894;10.700;2023-04-06T00:56:28;17.33;;;10.30;;
20527;SDS011;23612;50.894;10.700;2023-04-06T00:58:54;16.67;;;11.07;;
20527;SDS011;23612;50.894;10.700;2023-04-06T01:01:20;14.50;;;10.17;;
20527;SDS011;23612;50.894;10.700;2023-04-06T01:03:46;16.33;;;10.90;;
20527;SDS011;23612;50.894;10.700;2023-04-06T01:06:14;18.20;;;10.73;;
20527;SDS011;23612;50.894;10.700;2023-04-06T01:08:39;15.70;;;10.40;;
20527;SDS011;23612;50.894;10.700;2023-04-06T01:11:05;16.00;;;10.40;;
20527;SDS011;23612;50.894;10.700;2023-04-06T01:13:30;13.87;;;9.60;;
20527;SDS011;23612;50.894;10.700;2023-04-06T01:15:56;16.87;;;10.90;;
20527;SDS011;23612;50.894;10.700;2023-04-06T01:18:25;16.63;;;10.43;;
20527;SDS011;23612;50.894;10.700;2023-04-06T01:20:52;17.03;;;10.20;;
20527;SDS011;23612;50.894;10.700;2023-04-06T01:23:17;14.83;;;10.10;;
20527;SDS011;23612;50.894;10.700;2023-04-06T01:25:42;19.00;;;10.73;;
20527;SDS011;23612;50.894;10.700;2023-04-06T01:28:08;15.07;;;10.83;;
20527;SDS011;23612;50.894;10.700;2023-04-06T01:30:33;13.23;;;9.30;;
20527;SDS011;23612;50.894;10.700;2023-04-06T01:32:59;19.80;;;10.47;;
20527;SDS011;23612;50.894;10.700;2023-04-06T01:35:25;12.70;;;9.13;;
20527;SDS011;23612;50.894;10.700;2023-04-06T01:37:52;19.33;;;9.53;;
20527;SDS011;23612;50.894;10.700;2023-04-06T01:40:17;16.47;;;9.93;;
20527;SDS011;23612;50.894;10.700;2023-04-06T01:42:43;16.57;;;9.07;;
20527;SDS011;23612;50.894;10.700;2023-04-06T01:45:08;21.87;;;9.50;;
20527;SDS011;23612;50.894;10.700;2023-04-06T01:47:34;20.00;;;9.07;;
20527;SDS011;23612;50.894;10.700;2023-04-06T01:49:59;13.27;;;9.20;;
20527;SDS011;23612;50.894;10.700;2023-04-06T01:52:25;14.20;;;8.90;;
20527;SDS011;23612;50.894;10.700;2023-04-06T01:54:50;19.60;;;8.90;;
20527;SDS011;23612;50.894;10.700;2023-04-06T01:57:16;14.13;;;9.33;;
20527;SDS011;23612;50.894;10.700;2023-04-06T01:59:41;13.13;;;8.60;;
20527;SDS011;23612;50.894;10.700;2023-04-06T02:02:07;16.17;;;8.70;;
20527;SDS011;23612;50.894;10.700;2023-04-06T02:04:32;14.57;;;8.37;;
20527;SDS011;23612;50.894;10.700;2023-04-06T02:06:58;12.53;;;8.70;;
20527;SDS011;23612;50.894;10.700;2023-04-06T02:09:23;13.23;;;8.93;;
20527;SDS011;23612;50.894;10.700;2023-04-06T02:11:49;15.60;;;9.50;;
20527;SDS011;23612;50.894;10.700;2023-04-06T02:14:14;13.27;;;8.93;;
20527;SDS011;23612;50.894;10.700;2023-04-06T02:16:40;11.10;;;8.50;;
20527;SDS011;23612;50.894;10.700;2023-04-06T02:19:06;17.93;;;8.67;;
20527;SDS011;23612;50.894;10.700;2023-04-06T02:21:31;14.27;;;8.27;;
20527;SDS011;23612;50.894;10.700;2023-04-06T02:23:57;14.17;;;8.90;;
20527;SDS011;23612;50.894;10.700;2023-04-06T02:26:22;12.70;;;8.00;;
20527;SDS011;23612;50.894;10.700;2023-04-06T02:28:48;15.93;;;8.33;;
20527;SDS011;23612;50.894;10.700;2023-04-06T02:31:14;14.20;;;7.77;;
20527;SDS011;23612;50.894;10.700;2023-04-06T02:33:40;11.73;;;8.33;;
20527;SDS011;23612;50.894;10.700;2023-04-06T02:36:06;14.93;;;8.20;;
20527;SDS011;23612;50.894;10.700;2023-04-06T02:38:31;14.33;;;8.53;;
20527;SDS011;23612;50.894;10.700;2023-04-06T02:40:57;14.87;;;8.73;;
20527;SDS011;23612;50.894;10.700;2023-04-06T02:43:22;16.37;;;8.33;;
20527;SDS011;23612;50.894;10.700;2023-04-06T02:45:48;12.90;;;7.30;;
20527;SDS011;23612;50.894;10.700;2023-04-06T02:48:13;12.63;;;7.60;;
20527;SDS011;23612;50.894;10.700;2023-04-06T02:50:39;11.87;;;7.57;;
20527;SDS011;23612;50.894;10.700;2023-04-06T02:53:05;11.40;;;7.40;;
20527;SDS011;23612;50.894;10.700;2023-04-06T02:55:30;13.00;;;7.70;;
20527;SDS011;23612;50.894;10.700;2023-04-06T02:57:56;13.37;;;7.57;;
20527;SDS011;23612;50.894;10.700;2023-04-06T03:00:21;10.83;;;7.63;;
20527;SDS011;23612;50.894;10.700;2023-04-06T03:02:47;14.03;;;8.27;;
20527;SDS011;23612;50.894;10.700;2023-04-06T03:05:12;14.07;;;8.30;;
20527;SDS011;23612;50.894;10.700;2023-04-06T03:07:38;12.47;;;7.67;;
20527;SDS011;23612;50.894;10.700;2023-04-06T03:10:04;14.60;;;7.97;;
20527;SDS011;23612;50.894;10.700;2023-04-06T03:12:29;16.43;;;7.57;;
20527;SDS011;23612;50.894;10.700;2023-04-06T03:14:55;12.60;;;7.40;;
20527;SDS011;23612;50.894;10.700;2023-04-06T03:17:20;11.10;;;7.50;;
20527;SDS011;23612;50.894;10.700;2023-04-06T03:19:46;11.63;;;7.07;;
20527;SDS011;23612;50.894;10.700;2023-04-06T03:22:11;12.87;;;7.17;;
20527;SDS011;23612;50.894;10.700;2023-04-06T03:24:37;10.27;;;6.90;;
20527;SDS011;23612;50.894;10.700;2023-04-06T03:27:02;9.87;;;6.90;;
20527;SDS011;23612;50.894;10.700;2023-04-06T03:29:28;12.60;;;7.10;;
20527;SDS011;23612;50.894;10.700;2023-04-06T03:31:53;27.57;;;7.97;;
20527;SDS011;23612;50.894;10.700;2023-04-06T03:34:19;26.60;;;7.93;;
20527;SDS011;23612;50.894;10.700;2023-04-06T03:36:45;12.73;;;6.57;;
20527;SDS011;23612;50.894;10.700;2023-04-06T03:39:10;11.50;;;6.97;;
20527;SDS011;23612;50.894;10.700;2023-04-06T03:41:36;12.90;;;7.30;;
20527;SDS011;23612;50.894;10.700;2023-04-06T03:44:01;12.13;;;6.87;;
20527;SDS011;23612;50.894;10.700;2023-04-06T03:46:26;10.40;;;6.97;;
20527;SDS011;23612;50.894;10.700;2023-04-06T03:48:52;10.77;;;6.80;;
20527;SDS011;23612;50.894;10.700;2023-04-06T03:51:17;10.87;;;7.53;;
20527;SDS011;23612;50.894;10.700;2023-04-06T03:53:43;17.00;;;8.83;;
20527;SDS011;23612;50.894;10.700;2023-04-06T03:56:08;12.53;;;7.70;;
20527;SDS011;23612;50.894;10.700;2023-04-06T03:58:34;16.93;;;9.13;;
20527;SDS011;23612;50.894;10.700;2023-04-06T04:00:59;13.73;;;8.47;;
20527;SDS011;23612;50.894;10.700;2023-04-06T04:03:25;17.03;;;8.10;;
20527;SDS011;23612;50.894;10.700;2023-04-06T04:05:52;13.83;;;7.40;;
20527;SDS011;23612;50.894;10.700;2023-04-06T04:08:18;13.47;;;7.90;;
20527;SDS011;23612;50.894;10.700;2023-04-06T04:10:43;18.93;;;10.67;;
20527;SDS011;23612;50.894;10.700;2023-04-06T04:13:09;16.10;;;8.97;;
20527;SDS011;23612;50.894;10.700;2023-04-06T04:15:35;23.50;;;8.20;;
20527;SDS011;23612;50.894;10.700;2023-04-06T04:18:01;30.10;;;7.70;;
20527;SDS011;23612;50.894;10.700;2023-04-06T04:20:26;27.57;;;7.87;;
20527;SDS011;23612;50.894;10.700;2023-04-06T04:22:53;13.63;;;7.40;;
20527;SDS011;23612;50.894;10.700;2023-04-06T04:25:18;11.23;;;6.77;;
20527;SDS011;23612;50.894;10.700;2023-04-06T04:27:44;18.40;;;7.27;;
20527;SDS011;23612;50.894;10.700;2023-04-06T04:30:09;13.83;;;7.80;;
20527;SDS011;23612;50.894;10.700;2023-04-06T04:32:35;27.83;;;8.00;;
20527;SDS011;23612;50.894;10.700;2023-04-06T04:35:00;12.90;;;7.10;;
20527;SDS011;23612;50.894;10.700;2023-04-06T04:37:26;14.93;;;7.17;;
20527;SDS011;23612;50.894;10.700;2023-04-06T04:39:52;14.70;;;7.53;;
20527;SDS011;23612;50.894;10.700;2023-04-06T04:42:17;23.30;;;7.93;;
20527;SDS011;23612;50.894;10.700;2023-04-06T04:44:42;17.23;;;7.53;;
20527;SDS011;23612;50.894;10.700;2023-04-06T04:47:08;15.27;;;7.43;;
20527;SDS011;23612;50.894;10.700;2023-04-06T04:49:33;15.10;;;7.33;;
20527;SDS011;23612;50.894;10.700;2023-04-06T04:51:59;20.47;;;7.63;;
20527;SDS011;23612;50.894;10.700;2023-04-06T04:54:24;17.97;;;7.93;;
20527;SDS011;23612;50.894;10.700;2023-04-06T04:56:50;11.17;;;6.80;;
20527;SDS011;23612;50.894;10.700;2023-04-06T04:59:16;35.83;;;8.30;;
20527;SDS011;23612;50.894;10.700;2023-04-06T05:01:41;25.97;;;10.40;;
20527;SDS011;23612;50.894;10.700;2023-04-06T05:04:07;12.53;;;7.97;;
20527;SDS011;23612;50.894;10.700;2023-04-06T05:06:32;19.20;;;8.47;;
20527;SDS011;23612;50.894;10.700;2023-04-06T05:08:58;22.67;;;11.47;;
20527;SDS011;23612;50.894;10.700;2023-04-06T05:11:23;17.30;;;8.67;;
20527;SDS011;23612;50.894;10.700;2023-04-06T05:13:50;21.97;;;9.30;;
20527;SDS011;23612;50.894;10.700;2023-04-06T05:16:16;16.57;;;8.03;;
20527;SDS011;23612;50.894;10.700;2023-04-06T05:18:41;15.77;;;8.03;;
20527;SDS011;23612;50.894;10.700;2023-04-06T05:21:07;31.27;;;17.40;;
20527;SDS011;23612;50.894;10.700;2023-04-06T05:23:32;16.93;;;8.50;;
20527;SDS011;23612;50.894;10.700;2023-04-06T05:25:58;20.47;;;7.53;;
20527;SDS011;23612;50.894;10.700;2023-04-06T05:28:23;13.27;;;8.13;;
20527;SDS011;23612;50.894;10.700;2023-04-06T05:30:49;22.33;;;8.10;;
20527;SDS011;23612;50.894;10.700;2023-04-06T05:33:15;12.47;;;7.10;;
20527;SDS011;23612;50.894;10.700;2023-04-06T05:35:40;12.13;;;8.07;;
20527;SDS011;23612;50.894;10.700;2023-04-06T05:38:07;19.47;;;7.40;;
20527;SDS011;23612;50.894;10.700;2023-04-06T05:40:34;10.75;;;6.35;;
20527;SDS011;23612;50.894;10.700;2023-04-06T05:43:01;18.92;;;6.65;;
20527;SDS011;23612;50.894;10.700;2023-04-06T05:45:27;16.45;;;7.40;;
20527;SDS011;23612;50.894;10.700;2023-04-06T05:47:52;19.08;;;7.00;;
20527;SDS011;23612;50.894;10.700;2023-04-06T05:50:18;15.07;;;6.93;;
20527;SDS011;23612;50.894;10.700;2023-04-06T05:52:43;14.97;;;6.53;;
20527;SDS011;23612;50.894;10.700;2023-04-06T05:55:11;16.27;;;6.90;;
20527;SDS011;23612;50.894;10.700;2023-04-06T05:57:37;22.77;;;8.70;;
20527;SDS011;23612;50.894;10.700;2023-04-06T06:00:02;32.05;;;8.30;;
20527;SDS011;23612;50.894;10.700;2023-04-06T06:02:32;18.58;;;7.50;;
20527;SDS011;23612;50.894;10.700;2023-04-06T06:04:57;10.65;;;6.72;;
20527;SDS011;23612;50.894;10.700;2023-04-06T06:07:23;11.60;;;6.05;;
20527;SDS011;23612;50.894;10.700;2023-04-06T06:09:49;14.70;;;7.13;;
20527;SDS011;23612;50.894;10.700;2023-04-06T06:12:14;13.13;;;6.28;;
20527;SDS011;23612;50.894;10.700;2023-04-06T06:14:40;11.98;;;6.32;;
20527;SDS011;23612;50.894;10.700;2023-04-06T06:17:05;16.83;;;7.25;;
20527;SDS011;23612;50.894;10.700;2023-04-06T06:19:31;19.27;;;12.60;;
20527;SDS011;23612;50.894;10.700;2023-04-06T06:21:56;16.77;;;10.43;;
20527;SDS011;23612;50.894;10.700;2023-04-06T06:24:22;12.05;;;9.43;;
20527;SDS011;23612;50.894;10.700;2023-04-06T06:26:47;23.75;;;19.20;;
20527;SDS011;23612;50.894;10.700;2023-04-06T06:29:13;14.02;;;11.25;;
20527;SDS011;23612;50.894;10.700;2023-04-06T06:31:39;12.43;;;6.60;;
20527;SDS011;23612;50.894;10.700;2023-04-06T06:34:05;8.45;;;6.63;;
20527;SDS011;23612;50.894;10.700;2023-04-06T06:36:30;10.43;;;5.85;;
20527;SDS011;23612;50.894;10.700;2023-04-06T06:38:56;10.38;;;6.30;;
20527;SDS011;23612;50.894;10.700;2023-04-06T06:41:23;11.65;;;6.18;;
20527;SDS011;23612;50.894;10.700;2023-04-06T06:43:49;9.25;;;6.22;;
20527;SDS011;23612;50.894;10.700;2023-04-06T06:46:15;14.50;;;10.55;;
20527;SDS011;23612;50.894;10.700;2023-04-06T06:48:40;10.20;;;6.70;;
20527;SDS011;23612;50.894;10.700;2023-04-06T06:51:06;10.07;;;7.28;;
20527;SDS011;23612;50.894;10.700;2023-04-06T06:53:31;9.80;;;6.37;;
20527;SDS011;23612;50.894;10.700;2023-04-06T06:55:57;9.70;;;5.93;;
20527;SDS011;23612;50.894;10.700;2023-04-06T06:58:22;7.53;;;5.47;;
20527;SDS011;23612;50.894;10.700;2023-04-06T07:00:48;6.68;;;5.47;;
20527;SDS011;23612;50.894;10.700;2023-04-06T07:03:13;9.52;;;5.80;;
20527;SDS011;23612;50.894;10.700;2023-04-06T07:05:44;12.32;;;6.18;;
20527;SDS011;23612;50.894;10.700;2023-04-06T07:08:14;11.57;;;6.30;;
20527;SDS011;23612;50.894;10.700;2023-04-06T07:10:39;11.20;;;6.50;;
20527;SDS011;23612;50.894;10.700;2023-04-06T07:13:05;9.77;;;6.05;;
20527;SDS011;23612;50.894;10.700;2023-04-06T07:15:30;7.95;;;6.00;;
20527;SDS011;23612;50.894;10.700;2023-04-06T07:17:56;8.57;;;6.65;;
20527;SDS011;23612;50.894;10.700;2023-04-06T07:20:21;11.48;;;7.13;;
20527;SDS011;23612;50.894;10.700;2023-04-06T07:22:47;11.25;;;6.72;;
20527;SDS011;23612;50.894;10.700;2023-04-06T07:25:13;8.82;;;6.60;;
20527;SDS011;23612;50.894;10.700;2023-04-06T07:27:38;12.68;;;6.88;;
20527;SDS011;23612;50.894;10.700;2023-04-06T07:30:04;8.25;;;6.78;;
20527;SDS011;23612;50.894;10.700;2023-04-06T07:32:30;11.90;;;6.43;;
20527;SDS011;23612;50.894;10.700;2023-04-06T07:34:56;9.63;;;6.18;;
20527;SDS011;23612;50.894;10.700;2023-04-06T07:37:21;10.43;;;7.10;;
20527;SDS011;23612;50.894;10.700;2023-04-06T07:39:47;8.73;;;6.85;;
20527;SDS011;23612;50.894;10.700;2023-04-06T07:42:12;10.35;;;7.25;;
20527;SDS011;23612;50.894;10.700;2023-04-06T07:44:38;9.10;;;6.93;;
20527;SDS011;23612;50.894;10.700;2023-04-06T07:47:03;9.98;;;6.88;;
20527;SDS011;23612;50.894;10.700;2023-04-06T07:49:29;11.45;;;6.82;;
20527;SDS011;23612;50.894;10.700;2023-04-06T07:51:55;9.98;;;6.57;;
20527;SDS011;23612;50.894;10.700;2023-04-06T07:54:21;9.13;;;6.88;;
20527;SDS011;23612;50.894;10.700;2023-04-06T07:56:46;10.60;;;6.95;;
20527;SDS011;23612;50.894;10.700;2023-04-06T07:59:12;8.82;;;7.47;;
20527;SDS011;23612;50.894;10.700;2023-04-06T08:01:38;11.05;;;7.43;;
20527;SDS011;23612;50.894;10.700;2023-04-06T08:04:04;12.48;;;7.63;;
20527;SDS011;23612;50.894;10.700;2023-04-06T08:06:29;14.63;;;7.75;;
20527;SDS011;23612;50.894;10.700;2023-04-06T08:08:55;9.45;;;7.00;;
20527;SDS011;23612;50.894;10.700;2023-04-06T08:11:20;11.32;;;7.55;;
20527;SDS011;23612;50.894;10.700;2023-04-06T08:13:46;10.77;;;7.15;;
20527;SDS011;23612;50.894;10.700;2023-04-06T08:16:11;9.35;;;7.10;;
20527;SDS011;23612;50.894;10.700;2023-04-06T08:18:37;9.35;;;6.80;;
20527;SDS011;23612;50.894;10.700;2023-04-06T08:21:03;10.52;;;6.82;;
20527;SDS011;23612;50.894;10.700;2023-04-06T08:23:28;9.20;;;6.15;;
20527;SDS011;23612;50.894;10.700;2023-04-06T08:25:54;9.70;;;6.53;;
20527;SDS011;23612;50.894;10.700;2023-04-06T08:28:20;8.40;;;6.72;;
20527;SDS011;23612;50.894;10.700;2023-04-06T08:30:46;8.93;;;6.97;;
20527;SDS011;23612;50.894;10.700;2023-04-06T08:33:11;8.93;;;7.18;;
20527;SDS011;23612;50.894;10.700;2023-04-06T08:35:37;8.48;;;6.90;;
20527;SDS011;23612;50.894;10.700;2023-04-06T08:38:02;9.13;;;7.32;;
20527;SDS011;23612;50.894;10.700;2023-04-06T08:40:28;9.93;;;7.47;;
20527;SDS011;23612;50.894;10.700;2023-04-06T08:42:56;9.45;;;7.40;;
20527;SDS011;23612;50.894;10.700;2023-04-06T08:45:24;11.63;;;8.18;;
20527;SDS011;23612;50.894;10.700;2023-04-06T08:47:50;32.28;;;8.65;;
20527;SDS011;23612;50.894;10.700;2023-04-06T08:50:17;10.93;;;8.25;;
20527;SDS011;23612;50.894;10.700;2023-04-06T08:52:43;14.77;;;8.45;;
20527;SDS011;23612;50.894;10.700;2023-04-06T08:55:12;11.30;;;7.68;;
20527;SDS011;23612;50.894;10.700;2023-04-06T08:57:37;10.02;;;8.38;;
20527;SDS011;23612;50.894;10.700;2023-04-06T09:00:03;13.55;;;8.00;;
20527;SDS011;23612;50.894;10.700;2023-04-06T09:02:30;10.35;;;7.50;;
20527;SDS011;23612;50.894;10.700;2023-04-06T09:04:56;10.68;;;6.45;;
20527;SDS011;23612;50.894;10.700;2023-04-06T09:07:22;11.93;;;7.90;;
20527;SDS011;23612;50.894;10.700;2023-04-06T09:09:48;8.63;;;7.15;;
20527;SDS011;23612;50.894;10.700;2023-04-06T09:12:33;11.40;;;7.50;;
20527;SDS011;23612;50.894;10.700;2023-04-06T09:14:59;8.05;;;6.75;;
20527;SDS011;23612;50.894;10.700;2023-04-06T09:17:26;9.98;;;7.30;;
20527;SDS011;23612;50.894;10.700;2023-04-06T09:19:57;12.68;;;7.78;;
20527;SDS011;23612;50.894;10.700;2023-04-06T09:22:23;8.55;;;6.40;;
20527;SDS011;23612;50.894;10.700;2023-04-06T09:24:53;10.75;;;7.03;;
20527;SDS011;23612;50.894;10.700;2023-04-06T09:27:35;10.13;;;6.85;;
20527;SDS011;23612;50.894;10.700;2023-04-06T09:30:05;7.55;;;6.18;;
20527;SDS011;23612;50.894;10.700;2023-04-06T09:32:31;25.67;;;7.47;;
20527;SDS011;23612;50.894;10.700;2023-04-06T09:35:09;7.93;;;6.55;;
20527;SDS011;23612;50.894;10.700;2023-04-06T09:37:35;12.70;;;6.20;;
20527;SDS011;23612;50.894;10.700;2023-04-06T09:40:04;7.88;;;6.13;;
20527;SDS011;23612;50.894;10.700;2023-04-06T09:42:31;12.85;;;6.28;;
20527;SDS011;23612;50.894;10.700;2023-04-06T09:44:56;9.77;;;6.13;;
20527;SDS011;23612;50.894;10.700;2023-04-06T09:47:22;11.30;;;6.82;;
20527;SDS011;23612;50.894;10.700;2023-04-06T09:49:50;11.35;;;6.30;;
20527;SDS011;23612;50.894;10.700;2023-04-06T09:52:19;12.35;;;6.68;;
20527;SDS011;23612;50.894;10.700;2023-04-06T09:54:46;7.43;;;6.13;;
20527;SDS011;23612;50.894;10.700;2023-04-06T09:57:21;11.55;;;6.85;;
20527;SDS011;23612;50.894;10.700;2023-04-06T09:59:56;8.05;;;6.25;;
20527;SDS011;23612;50.894;10.700;2023-04-06T10:05:27;36.15;;;7.78;;
20527;SDS011;23612;50.894;10.700;2023-04-06T10:08:05;9.63;;;6.47;;
20527;SDS011;23612;50.894;10.700;2023-04-06T10:10:33;9.75;;;6.45;;
20527;SDS011;23612;50.894;10.700;2023-04-06T10:12:59;7.65;;;6.32;;
20527;SDS011;23612;50.894;10.700;2023-04-06T10:15:25;9.20;;;6.32;;
20527;SDS011;23612;50.894;10.700;2023-04-06T10:17:53;9.35;;;6.90;;
20527;SDS011;23612;50.894;10.700;2023-04-06T10:20:23;9.15;;;7.00;;
20527;SDS011;23612;50.894;10.700;2023-04-06T10:25:34;7.82;;;7.03;;
20527;SDS011;23612;50.894;10.700;2023-04-06T10:28:09;8.10;;;7.22;;
20527;SDS011;23612;50.894;10.700;2023-04-06T10:30:41;13.15;;;8.15;;
20527;SDS011;23612;50.894;10.700;2023-04-06T10:33:18;8.77;;;7.30;;
20527;SDS011;23612;50.894;10.700;2023-04-06T10:35:44;9.32;;;7.82;;
20527;SDS011;23612;50.894;10.700;2023-04-06T10:38:10;10.35;;;7.82;;
20527;SDS011;23612;50.894;10.700;2023-04-06T10:40:40;9.90;;;8.07;;
20527;SDS011;23612;50.894;10.700;2023-04-06T10:43:11;10.15;;;8.32;;
20527;SDS011;23612;50.894;10.700;2023-04-06T10:45:44;9.38;;;8.13;;
20527;SDS011;23612;50.894;10.700;2023-04-06T10:48:19;9.25;;;7.78;;
20527;SDS011;23612;50.894;10.700;2023-04-06T10:50:46;10.52;;;8.00;;
20527;SDS011;23612;50.894;10.700;2023-04-06T10:53:20;10.82;;;7.75;;
20527;SDS011;23612;50.894;10.700;2023-04-06T10:55:47;10.05;;;8.10;;
20527;SDS011;23612;50.894;10.700;2023-04-06T10:58:15;10.43;;;8.68;;
20527;SDS011;23612;50.894;10.700;2023-04-06T11:00:47;10.20;;;7.95;;
20527;SDS011;23612;50.894;10.700;2023-04-06T11:03:14;12.48;;;9.00;;
20527;SDS011;23612;50.894;10.700;2023-04-06T11:05:47;8.63;;;7.32;;
20527;SDS011;23612;50.894;10.700;2023-04-06T11:11:12;11.80;;;8.27;;
20527;SDS011;23612;50.894;10.700;2023-04-06T11:13:41;9.32;;;7.90;;
20527;SDS011;23612;50.894;10.700;2023-04-06T11:16:17;9.48;;;7.45;;
20527;SDS011;23612;50.894;10.700;2023-04-06T11:19:00;8.18;;;7.38;;
20527;SDS011;23612;50.894;10.700;2023-04-06T11:21:37;10.30;;;8.35;;
20527;SDS011;23612;50.894;10.700;2023-04-06T11:24:11;8.90;;;7.18;;
20527;SDS011;23612;50.894;10.700;2023-04-06T11:26:47;11.27;;;7.50;;
20527;SDS011;23612;50.894;10.700;2023-04-06T11:29:17;8.45;;;7.57;;
20527;SDS011;23612;50.894;10.700;2023-04-06T11:31:48;8.60;;;7.35;;
20527;SDS011;23612;50.894;10.700;2023-04-06T11:34:19;8.43;;;7.55;;
20527;SDS011;23612;50.894;10.700;2023-04-06T11:36:47;8.68;;;6.80;;
20527;SDS011;23612;50.894;10.700;2023-04-06T11:39:17;9.68;;;7.40;;
20527;SDS011;23612;50.894;10.700;2023-04-06T11:41:51;12.68;;;7.95;;
20527;SDS011;23612;50.894;10.700;2023-04-06T11:44:29;8.85;;;6.88;;
20527;SDS011;23612;50.894;10.700;2023-04-06T11:47:05;10.45;;;7.20;;
20527;SDS011;23612;50.894;10.700;2023-04-06T11:49:32;17.90;;;8.10;;
20527;SDS011;23612;50.894;10.700;2023-04-06T11:51:59;9.57;;;7.60;;
20527;SDS011;23612;50.894;10.700;2023-04-06T11:54:32;9.63;;;7.45;;
20527;SDS011;23612;50.894;10.700;2023-04-06T11:56:58;13.18;;;7.55;;
20527;SDS011;23612;50.894;10.700;2023-04-06T11:59:25;11.15;;;7.47;;
20527;SDS011;23612;50.894;10.700;2023-04-06T12:01:52;9.02;;;8.10;;
20527;SDS011;23612;50.894;10.700;2023-04-06T12:04:18;8.82;;;7.90;;
20527;SDS011;23612;50.894;10.700;2023-04-06T12:06:43;10.73;;;8.48;;
20527;SDS011;23612;50.894;10.700;2023-04-06T12:09:09;11.38;;;7.40;;
20527;SDS011;23612;50.894;10.700;2023-04-06T12:11:34;8.52;;;6.90;;
20527;SDS011;23612;50.894;10.700;2023-04-06T12:14:00;9.40;;;6.65;;
20527;SDS011;23612;50.894;10.700;2023-04-06T12:16:26;14.77;;;7.40;;
20527;SDS011;23612;50.894;10.700;2023-04-06T12:18:52;8.95;;;7.57;;
20527;SDS011;23612;50.894;10.700;2023-04-06T12:21:17;19.27;;;7.00;;
20527;SDS011;23612;50.894;10.700;2023-04-06T12:23:43;8.38;;;7.13;;
20527;SDS011;23612;50.894;10.700;2023-04-06T12:26:08;11.68;;;10.20;;
20527;SDS011;23612;50.894;10.700;2023-04-06T12:28:34;11.90;;;8.70;;
20527;SDS011;23612;50.894;10.700;2023-04-06T12:30:59;9.35;;;8.35;;
20527;SDS011;23612;50.894;10.700;2023-04-06T12:33:25;8.95;;;7.78;;
20527;SDS011;23612;50.894;10.700;2023-04-06T12:35:50;8.27;;;7.40;;
20527;SDS011;23612;50.894;10.700;2023-04-06T12:38:16;9.88;;;8.45;;
20527;SDS011;23612;50.894;10.700;2023-04-06T12:40:41;9.70;;;7.97;;
20527;SDS011;23612;50.894;10.700;2023-04-06T12:43:07;13.80;;;8.32;;
20527;SDS011;23612;50.894;10.700;2023-04-06T12:45:33;11.10;;;7.78;;
20527;SDS011;23612;50.894;10.700;2023-04-06T12:47:59;16.40;;;9.48;;
20527;SDS011;23612;50.894;10.700;2023-04-06T12:50:24;9.50;;;8.15;;
20527;SDS011;23612;50.894;10.700;2023-04-06T12:52:51;13.88;;;10.02;;
20527;SDS011;23612;50.894;10.700;2023-04-06T12:55:16;8.57;;;7.75;;
20527;SDS011;23612;50.894;10.700;2023-04-06T12:57:42;16.05;;;8.38;;
20527;SDS011;23612;50.894;10.700;2023-04-06T13:00:08;8.02;;;7.22;;
20527;SDS011;23612;50.894;10.700;2023-04-06T13:02:34;11.15;;;7.07;;
20527;SDS011;23612;50.894;10.700;2023-04-06T13:04:59;9.60;;;7.28;;
20527;SDS011;23612;50.894;10.700;2023-04-06T13:07:25;7.78;;;6.95;;
20527;SDS011;23612;50.894;10.700;2023-04-06T13:09:51;7.90;;;7.10;;
20527;SDS011;23612;50.894;10.700;2023-04-06T13:12:16;9.25;;;6.82;;
20527;SDS011;23612;50.894;10.700;2023-04-06T13:14:42;8.60;;;7.38;;
20527;SDS011;23612;50.894;10.700;2023-04-06T13:17:08;10.40;;;7.07;;
20527;SDS011;23612;50.894;10.700;2023-04-06T13:19:34;8.18;;;7.38;;
20527;SDS011;23612;50.894;10.700;2023-04-06T13:21:59;9.40;;;6.85;;
20527;SDS011;23612;50.894;10.700;2023-04-06T13:24:24;7.82;;;6.72;;
20527;SDS011;23612;50.894;10.700;2023-04-06T13:26:50;7.97;;;6.82;;
20527;SDS011;23612;50.894;10.700;2023-04-06T13:29:16;13.38;;;10.13;;
20527;SDS011;23612;50.894;10.700;2023-04-06T13:31:41;7.85;;;7.15;;
20527;SDS011;23612;50.894;10.700;2023-04-06T13:34:07;11.00;;;7.47;;
20527;SDS011;23612;50.894;10.700;2023-04-06T13:36:32;16.50;;;10.90;;
20527;SDS011;23612;50.894;10.700;2023-04-06T13:38:58;10.60;;;8.20;;
20527;SDS011;23612;50.894;10.700;2023-04-06T13:41:24;10.75;;;8.45;;
20527;SDS011;23612;50.894;10.700;2023-04-06T13:43:51;11.43;;;9.10;;
20527;SDS011;23612;50.894;10.700;2023-04-06T13:46:17;10.73;;;7.70;;
20527;SDS011;23612;50.894;10.700;2023-04-06T13:48:43;10.20;;;8.30;;
20527;SDS011;23612;50.894;10.700;2023-04-06T13:51:09;10.68;;;9.05;;
20527;SDS011;23612;50.894;10.700;2023-04-06T13:53:35;10.05;;;8.30;;
20527;SDS011;23612;50.894;10.700;2023-04-06T13:56:00;9.20;;;7.88;;
20527;SDS011;23612;50.894;10.700;2023-04-06T13:58:26;9.60;;;8.20;;
20527;SDS011;23612;50.894;10.700;2023-04-06T14:00:51;11.70;;;7.28;;
20527;SDS011;23612;50.894;10.700;2023-04-06T14:03:17;13.48;;;7.35;;
20527;SDS011;23612;50.894;10.700;2023-04-06T14:05:44;7.90;;;6.65;;
20527;SDS011;23612;50.894;10.700;2023-04-06T14:08:10;8.80;;;6.90;;
20527;SDS011;23612;50.894;10.700;2023-04-06T14:10:39;13.05;;;8.10;;
20527;SDS011;23612;50.894;10.700;2023-04-06T14:13:06;8.80;;;7.10;;
20527;SDS011;23612;50.894;10.700;2023-04-06T14:15:32;9.07;;;7.13;;
20527;SDS011;23612;50.894;10.700;2023-04-06T14:17:59;9.45;;;7.75;;
20527;SDS011;23612;50.894;10.700;2023-04-06T14:20:25;10.00;;;7.88;;
20527;SDS011;23612;50.894;10.700;2023-04-06T14:22:51;48.67;;;8.85;;
20527;SDS011;23612;50.894;10.700;2023-04-06T14:25:17;9.93;;;6.45;;
20527;SDS011;23612;50.894;10.700;2023-04-06T14:27:43;8.95;;;6.03;;